Terminal Aerodrome Forecast
Issued by NWS Chicago, IL

Home | Current Version | Previous Version | Graphics & Text | Print | Product List | Glossary On
Versions: 1 2 3 4 5 6 7 8 9 10 11 12 13 14 15 16 17 18 19 20 21 22 23 24 25
798
FTUS43 KLOT 262100 AAA
TAFRFD
TAF AMD
KRFD 262100Z 2621/2718 07012KT 5SM -RA SCT025 OVC040
      TEMPO 2621/2623 2SM -RA BR BKN025
     FM262300 08008KT P6SM SCT010 BKN020
     FM270300 03005KT 6SM BR SCT050
     FM271600 14004KT P6SM SCT120=

USA.gov is the U.S. government's official web portal to all federal, state and local government web resources and services.